logo
App data

BC Kings

BC Kings features several new elements not commonly found in strategy games. In addition to gathering resources, training an army and defeating the enemy, you will have to solve adventure and role-playing elements as well. The campaign is built around the epic story of the brave hero Mradin, and his trusty old friend Giesnik.
Store | Hub | SteamDB | Site
Developer: Mascot Entertainment Publisher: Strategy First
Genre: Strategy
Languages: English
Tags: Strategy (45), RTS (10), Multiplayer (6)
Category: Single-player, Multi-player
Release date: Sep 15, 2008
Price: $4.99
Old userscore: 57% Owners: 20,000 .. 50,000
Followers: 230
Peak concurrent players yesterday: 2
YouTube stats: 7 views and 1 comments for top 50 videos uploaded last week, 0 new videos uploaded yesterday.

Steam Spy is still in beta, so expect major bugs.

Owners data:

Access restricted.

This feature is only available to users with special access rights. Sorry.

If you want to proceed, you need to register or log in first and then back Steam Spy on Patreon. Look for Indie or Pro pledge.

Don't forget to use the same email as on Steam Spy!

Audience in 2 weeks:

Access restricted.

This feature is only available to users with special access rights. Sorry.

If you want to proceed, you need to register or log in first and then back Steam Spy on Patreon. Look for Indie or Pro pledge.

Don't forget to use the same email as on Steam Spy!

Peak daily concurrent players:

CCU data courtesy of SteamDB. Used with permission.

Hourly concurrent players:

Daily Twitch stats:

Hourly Twitch stats:

Followers over time

Access restricted.

This feature is only available to users with special access rights. Sorry.

If you want to proceed, you need to register or log in first and then back Steam Spy on Patreon. Look for Indie or Pro pledge.

Don't forget to use the same email as on Steam Spy!

Views for top 50 videos on YouTube for this game:

Games similar to this one:

# Game Release date
Price
Score rank
(Userscore / Metascore)
Owners
Players
Playtime (Median)
1 Code of Princess Apr 14, 2016 $3.74N/A (N/A/53%)20,000 .. 50,0000%00:00 (00:00)
2 Avaris 2: The Return of the Empress Dec 15, 2015 $3.99N/A (N/A)0 .. 20,0000%00:00 (00:00)
3 Knight Adventure Oct 15, 2015 $0.99N/A (N/A)20,000 .. 50,0000%00:00 (00:00)
4 Megamagic: Wizards of the Neon Age Apr 20, 2016 $2.99N/A (N/A/67%)20,000 .. 50,0000%00:00 (00:00)
5 Run Rabbit Run Mar 31, 2016 $3.99N/A (N/A)0 .. 20,0000%00:00 (00:00)
6 Neon Chrome Apr 28, 2016 $5.24N/A (N/A/74%)200,000 .. 500,0000%00:00 (00:00)
7 Angry Video Game Nerd II: ASSimilation Mar 29, 2016 $5.99N/A (N/A)20,000 .. 50,0000%00:00 (00:00)
8 Reverse Crawl Sep 24, 2015 $1.49N/A (N/A)50,000 .. 100,0000%00:00 (00:00)
9 Galaxy Admirals Jan 17, 2017 $0.99N/A (N/A)100,000 .. 200,0000%00:00 (00:00)
10 The Juicer Sep 6, 2012 $0.66N/A (N/A)50,000 .. 100,0000%00:00 (00:00)
11 Legend (1994) Apr 1, 1994 $1.74N/A (N/A)0 .. 20,0000%00:00 (00:00)
12 The Aquatic Adventure of the Last Human Jan 19, 2016 $4.99N/A (N/A/76%)50,000 .. 100,0000%00:00 (00:00)
13 Monster Monpiece Mar 14, 2017 $6.99N/A (N/A)0 .. 20,0000%00:00 (00:00)
14 Sky To Fly: Faster Than Wind Mar 25, 2016 $3.99N/A (N/A)20,000 .. 50,0000%00:00 (00:00)
15 UnSummoning: the Spectral Horde Dec 21, 2015 FreeN/A (N/A)0 .. 20,0000%00:00 (00:00)
16 Crush Your Enemies Jul 13, 2016 $1.99N/A (N/A/63%)20,000 .. 50,0000%00:00 (00:00)
17 Vector Strain Dec 9, 2015 $2.99N/A (N/A)0 .. 20,0000%00:00 (00:00)
18 Dustoff Heli Rescue Mar 6, 2015 $3.99N/A (N/A)20,000 .. 50,0000%00:00 (00:00)
19 Velocity 2X Aug 19, 2015 $6.59N/A (N/A)0 .. 20,0000%00:00 (00:00)
20 HitBox Jan 30, 2017 FreeN/A (N/A)20,000 .. 50,0000%00:00 (00:00)
21 Strategy & Tactics: Wargame Collection Apr 22, 2016 $2.99N/A (N/A)50,000 .. 100,0000%00:00 (00:00)
22 Lux Delux May 1, 2015 $9.99N/A (N/A)50,000 .. 100,0000%00:00 (00:00)
23 Urja Jan 9, 2015 $9.99N/A (N/A)20,000 .. 50,0000%00:00 (00:00)
24 Robotex Nov 18, 2014 $4.99N/A (N/A)200,000 .. 500,0000%00:00 (00:00)
25 Death Ray Manta SE Sep 17, 2015 $1.99N/A (N/A)20,000 .. 50,0000%00:00 (00:00)
26 PixelJunk Shooter Ultimate Oct 21, 2015 $1.49N/A (N/A)50,000 .. 100,0000%00:00 (00:00)
27 Headlander Jul 25, 2016 $1.99N/A (N/A/74%)50,000 .. 100,0000%00:00 (00:00)
28 Fortified Feb 3, 2016 $2.24N/A (N/A)500,000 .. 1,000,0000%00:00 (00:00)
29 Armed with Wings: Rearmed Jun 1, 2017 $4.49N/A (N/A)20,000 .. 50,0000%00:00 (00:00)
30 Bet On Soldier Sep 26, 2005 $0.79N/A (N/A)100,000 .. 200,0000%00:00 (00:00)
31 Stay Dead Evolution Feb 4, 2015 $1.01N/A (N/A)20,000 .. 50,0000%00:00 (00:00)
32 Bloodsports.TV Mar 30, 2015 $2.49N/A (N/A/69%)100,000 .. 200,0000%00:00 (00:00)
33 Super Cyborg Jul 8, 2015 $4.99N/A (N/A)20,000 .. 50,00016.67%00:55 (00:27)
34 Deadnaut Nov 27, 2014 $4.99N/A (N/A)50,000 .. 100,0000%00:00 (00:00)
35 Gun Metal Sep 23, 2003 $0.59N/A (N/A)200,000 .. 500,0003.57%00:44 (00:14)
36 Battle Group 2 Jun 13, 2014 $0.79N/A (N/A)50,000 .. 100,0000%00:00 (00:00)
37 Antisquad Oct 31, 2014 $5.99N/A (N/A)50,000 .. 100,0000%00:00 (00:00)
38 Albedo: Eyes from Outer Space Apr 10, 2015 $2.99N/A (N/A/66%)20,000 .. 50,0000%00:00 (00:00)
39 Meltdown Jun 5, 2014 $6.99N/A (N/A)100,000 .. 200,0000%00:00 (00:00)
40 Wyv and Keep: The Temple of the Lost Idol Aug 8, 2014 $14.99N/A (N/A)0 .. 20,0000%00:00 (00:00)
41 Ku: Shroud of the Morrigan Mar 17, 2014 $4.99N/A (N/A)20,000 .. 50,0000%00:00 (00:00)
42 Guns n Zombies Oct 30, 2014 $7.99N/A (N/A)100,000 .. 200,0000%00:00 (00:00)
43 Shadow Blade: Reload Aug 10, 2015 $3.99N/A (N/A/70%)20,000 .. 50,0000%00:00 (00:00)
44 Major Mayhem Feb 24, 2014 $4.99N/A (N/A)20,000 .. 50,0000%00:00 (00:00)
45 The Last Federation Apr 18, 2014 $4.99N/A (N/A/72%)50,000 .. 100,0000%00:00 (00:00)
46 Platformines Mar 28, 2014 $9.99N/A (N/A/67%)50,000 .. 100,00012.5%01:01 (00:20)
47 Mechs & Mercs: Black Talons Jan 9, 2015 $3.49N/A (N/A)20,000 .. 50,0000%00:00 (00:00)
48 Deadly 30 Jan 8, 2014 $0.99N/A (N/A)100,000 .. 200,0000%00:00 (00:00)
49 Z Steel Soldiers Aug 1, 2014 $4.41N/A (N/A)50,000 .. 100,0000%00:00 (00:00)
50 Meridian: New World Apr 4, 2014 $1.39N/A (N/A/43%)100,000 .. 200,00012.5%01:12 (00:24)
51 Z Jul 4, 2014 $2.37N/A (N/A)100,000 .. 200,0000%00:00 (00:00)
52 Star Wolves 3: Civil War Mar 2, 2010 $0.99N/A (N/A)100,000 .. 200,0000%00:00 (00:00)
53 Control Craft 2 Feb 15, 2016 $0.49N/A (N/A)20,000 .. 50,0000%00:00 (00:00)
54 Age of Wonders Oct 2010 $1.49N/A (N/A)100,000 .. 200,0000%00:00 (00:00)
55 TableTop Soccer Apr 22, 2016 $0.99N/A (N/A)0 .. 20,0000%00:00 (00:00)
56 Theatre of War 2: Africa 1943 Apr 24, 2009 $0.99N/A (N/A/63%)50,000 .. 100,0000%00:00 (00:00)
57 Banzai Escape Mar 16, 2016 $5.99N/A (N/A)20,000 .. 50,0000%00:00 (00:00)
58 Age of Wonders Shadow Magic Oct 2010 $2.49N/A (N/A/82%)100,000 .. 200,0000%00:00 (00:00)
59 Link Apr 22, 2016 $4.99N/A (N/A)0 .. 20,0000%00:00 (00:00)
60 Making History II: The War of the World Jun 22, 2010 $7.49N/A (N/A/38%)50,000 .. 100,0000%00:00 (00:00)
61 Story Of the Survivor Feb 17, 2016 $1.99N/A (N/A)50,000 .. 100,0000%00:00 (00:00)
62 Magic Quest May 6, 2016 $1.99N/A (N/A)50,000 .. 100,0000%00:00 (00:00)
63 LEGO Indiana Jones 2: The Adventure Continues Feb 18, 2010 $4.99N/A (N/A/66%)50,000 .. 100,0000%00:00 (00:00)
64 RISK: Factions Dec 15, 2020 N/AN/A (N/A/77%)20,000 .. 50,0000%00:00 (00:00)
65 DreamBreak Jul 21, 2016 $1.74N/A (N/A/46%)20,000 .. 50,0000%00:00 (00:00)
66 Disciples III - Renaissance Steam Special Edition Jul 16, 2010 $2.99N/A (N/A/56%)100,000 .. 200,0000%00:00 (00:00)
67 Super Helmets on Fire DX Ultra Edition Plus Alpha Feb 15, 2016 FreeN/A (N/A)0 .. 20,0000%00:00 (00:00)
68 Greed Corp Dec 10, 2010 $9.99N/A (N/A/76%)200,000 .. 500,0000%00:00 (00:00)
69 Revenge of Roger Rouge Apr 22, 2016 $1.74N/A (N/A)20,000 .. 50,0003.45%04:34 (01:31)
70 Chaser Aug 22, 2003 $1.24N/A (N/A/66%)100,000 .. 200,0000%00:00 (00:00)
71 Phoning Home Feb 7, 2017 $1.49N/A (N/A/61%)50,000 .. 100,0000%00:00 (00:00)
72 Atom Zombie Smasher Mar 14, 2011 $4.99N/A (N/A/75%)200,000 .. 500,0000%00:00 (00:00)
73 Onechanbara Z2: Chaos Jun 2, 2016 $11.19N/A (N/A)20,000 .. 50,0000%00:00 (00:00)
74 Sword of the Stars II: Enhanced Edition Nov 30, 2012 $4.99N/A (N/A/65%)200,000 .. 500,0000%00:00 (00:00)
75 A Blind Legend Apr 7, 2016 $2.37N/A (N/A)20,000 .. 50,0000%00:00 (00:00)
76 Patrician IV Sep 17, 2010 $4.49N/A (N/A/66%)100,000 .. 200,0000%00:00 (00:00)
77 Assault on Arnhem Mar 11, 2016 $4.99N/A (N/A)0 .. 20,0000%00:00 (00:00)
78 The Haunted: Hells Reach Oct 24, 2011 $2.69N/A (N/A/51%)50,000 .. 100,0000%00:00 (00:00)
79 Star Realms Mar 8, 2016 FreeN/A (N/A)100,000 .. 200,0000%00:00 (00:00)
80 Dungeons Feb 10, 2011 $1.99N/A (N/A/65%)200,000 .. 500,0000%00:00 (00:00)
81 Ace of Seafood Apr 8, 2016 $3.59N/A (N/A)50,000 .. 100,0000%00:00 (00:00)
82 Dead Rising 2: Off the Record Oct 11, 2011 $5.99N/A (N/A/66%)200,000 .. 500,0003.57%02:16 (00:45)
83 Legends of Callasia Jun 10, 2016 $14.99N/A (N/A)50,000 .. 100,0000%00:00 (00:00)
84 Power of Defense Aug 4, 2010 $9.99N/A (N/A)0 .. 20,0000%00:00 (00:00)
85 Meridian: Squad 22 Aug 11, 2016 $2.99N/A (N/A)0 .. 20,0000%00:00 (00:00)
86 Trigger Runners Mar 3, 2016 $1.99N/A (N/A)0 .. 20,0000%00:00 (00:00)
87 Hyperspace Pinball Sep 30, 2015 $2.99N/A (N/A)0 .. 20,0000%00:00 (00:00)
88 Albino Lullaby: Episode 1 Sep 15, 2015 $9.99N/A (N/A)20,000 .. 50,0000%00:00 (00:00)
89 Burstfire Sep 24, 2015 N/AN/A (N/A)20,000 .. 50,0000%00:00 (00:00)
90 Dungeon Warfare Nov 4, 2015 $2.49N/A (N/A)50,000 .. 100,0000%00:00 (00:00)
91 Supercharged Robot VULKAISER Jun 4, 2015 $2.49N/A (N/A)20,000 .. 50,0000%00:00 (00:00)
92 Samudai Feb 9, 2015 $0.49N/A (N/A)50,000 .. 100,0000%00:00 (00:00)
93 No Pineapple Left Behind Feb 18, 2016 $6.99N/A (N/A/59%)0 .. 20,0000%00:00 (00:00)
94 Synonymy Dec 12, 2014 $0.49N/A (N/A)20,000 .. 50,0000%00:00 (00:00)
95 Planet of the Eyes Aug 24, 2015 $3.99N/A (N/A/66%)50,000 .. 100,0000%00:00 (00:00)
96 Tiamat X May 29, 2015 $0.49N/A (N/A)20,000 .. 50,0000%00:00 (00:00)
97 Cultures - 8th Wonder of the World Mar 26, 2015 $0.49N/A (N/A)100,000 .. 200,0000%00:00 (00:00)
98 CRYPTARK Jun 20, 2017 $3.74N/A (N/A/80%)100,000 .. 200,0000%00:00 (00:00)
99 Fort Meow Jun 25, 2015 $7.99N/A (N/A)20,000 .. 50,0000%00:00 (00:00)
100 David. Mar 14, 2014 $0.59N/A (N/A)100,000 .. 200,0000%00:00 (00:00)
101 King of Dragon Pass Jul 28, 2015 $3.59N/A (N/A)50,000 .. 100,0000%00:00 (00:00)
102 Rise & Shine Jan 13, 2017 $5.99N/A (N/A)50,000 .. 100,0000%00:00 (00:00)
103 Enemy Mind Jun 6, 2014 $2.99N/A (N/A)100,000 .. 200,0005.88%00:44 (00:14)
104 Marauder Sep 10, 2009 $0.99N/A (N/A)50,000 .. 100,0000%00:00 (00:00)
105 Shadow Ops: Red Mercury Sep 17, 2004 $1.74N/A (N/A/61%)50,000 .. 100,0000%00:00 (00:00)
106 Collapse Sep 25, 2008 $1.99N/A (N/A)50,000 .. 100,0000%00:00 (00:00)
107 Hard Truck Apocalypse: Arcade / Ex Machina: Arcade May 24, 2007 $0.49N/A (N/A)20,000 .. 50,0000%00:00 (00:00)
108 RIVE: Wreck, Hack, Die, Retry! Sep 13, 2016 $1.49N/A (N/A)100,000 .. 200,0000%00:00 (00:00)
109 Disney Planes Aug 6, 2013 $5.99N/A (N/A)0 .. 20,0000%00:00 (00:00)
110 Spider: Rite of the Shrouded Moon Aug 6, 2015 $9.99N/A (N/A)20,000 .. 50,0000%00:00 (00:00)
111 TY the Tasmanian Tiger 4 Sep 17, 2015 $3.95N/A (N/A)20,000 .. 50,0000%00:00 (00:00)
112 Interplanetary May 12, 2015 N/AN/A (N/A)100,000 .. 200,0000%00:00 (00:00)
113 8-Bit Commando Jul 27, 2011 $3.99N/A (N/A)100,000 .. 200,0000%00:00 (00:00)
114 Abalone Apr 23, 2014 $6.99N/A (N/A)20,000 .. 50,0000%00:00 (00:00)
115 Rex Rocket Aug 5, 2014 $4.99N/A (N/A)20,000 .. 50,0000%00:00 (00:00)
116 Battlepillars Gold Edition Apr 28, 2014 $4.99N/A (N/A)20,000 .. 50,0000%00:00 (00:00)
117 Perimeter: Emperor's Testament Aug 29, 2006 $0.79N/A (N/A/72%)20,000 .. 50,0000%00:00 (00:00)
118 Battleplan: American Civil War Jul 4, 2014 $9.99N/A (N/A/66%)100,000 .. 200,0004.55%00:21 (00:07)
119 Perimeter May 21, 2004 $0.79N/A (N/A/77%)20,000 .. 50,0000%00:00 (00:00)
120 Adventure World Aug 2, 2016 $4.99N/A (N/A)0 .. 20,0000%00:00 (00:00)
121 Dungeons - The Dark Lord Sep 27, 2011 $5.99N/A (N/A/72%)100,000 .. 200,0000%00:00 (00:00)
122 FIVE: Champions of Canaan Sep 27, 2016 $3.99N/A (N/A)20,000 .. 50,0000%00:00 (00:00)
123 APOX Jan 20, 2011 $14.99N/A (N/A/48%)20,000 .. 50,0000%00:00 (00:00)
124 Urban Pirate Jun 17, 2016 $6.99N/A (N/A)0 .. 20,0000%00:00 (00:00)
125 Disciples III - Resurrection Oct 11, 2011 $2.99N/A (N/A/63%)100,000 .. 200,0000%00:00 (00:00)
126 Ballistic Tanks Sep 20, 2016 $4.99N/A (N/A)20,000 .. 50,0000%00:00 (00:00)
127 Fate of the World Feb 28, 2011 $9.99N/A (N/A/70%)50,000 .. 100,0000%00:00 (00:00)
128 Purgatory Jun 22, 2016 $0.49N/A (N/A)50,000 .. 100,0000%00:00 (00:00)
129 Monday Night Combat Jan 24, 2011 $4.99N/A (N/A/82%)200,000 .. 500,0000%00:00 (00:00)
130 Woodle Tree 2: Worlds Sep 16, 2016 $2.79N/A (N/A)20,000 .. 50,0000%00:00 (00:00)
131 A.R.E.S.: Extinction Agenda Jan 20, 2011 $4.99N/A (N/A/68%)50,000 .. 100,0000%00:00 (00:00)
132 Slash or Die Jun 3, 2016 $2.69N/A (N/A)50,000 .. 100,0000%00:00 (00:00)
133 Swords and Soldiers HD Dec 2, 2010 $2.49N/A (N/A)200,000 .. 500,0000%00:00 (00:00)
134 Amaranthine Apr 6, 2016 $0.89N/A (N/A)0 .. 20,0000%00:00 (00:00)
135 Kohan: Ahriman's Gift Nov 6, 2001 $0.99N/A (N/A/79%)20,000 .. 50,0000%00:00 (00:00)
136 VRZ: Torment May 18, 2017 $9.99N/A (N/A)0 .. 20,0000%00:00 (00:00)
137 Delve Deeper Sep 24, 2010 $4.99N/A (N/A)50,000 .. 100,0000%00:00 (00:00)
138 Odd||Even Apr 6, 2016 $0.49N/A (N/A)20,000 .. 50,0000%00:00 (00:00)
139 Kohan II: Kings of War Sep 21, 2004 $0.99N/A (N/A/81%)20,000 .. 50,0000%00:00 (00:00)
140 Smithy Jun 3, 2016 $0.49N/A (N/A)20,000 .. 50,0000%00:00 (00:00)
141 Men of War: Vietnam Sep 8, 2011 $1.59N/A (N/A/68%)200,000 .. 500,0000%00:00 (00:00)
142 Defend Your Crypt Jul 21, 2016 $0.5N/A (N/A)0 .. 20,0000%00:00 (00:00)
143 Demolition Inc. Sep 19, 2011 $5.99N/A (N/A)50,000 .. 100,0000%00:00 (00:00)
144 Mr. Shifty Apr 13, 2017 $4.94N/A (N/A)100,000 .. 200,0002.94%04:09 (01:23)
145 Carrier Command: Gaea Mission Sep 28, 2012 $6.59N/A (N/A/60%)100,000 .. 200,0000%00:00 (00:00)
146 Auro: A Monster-Bumping Adventure Apr 13, 2016 $6.99N/A (N/A)20,000 .. 50,0000%00:00 (00:00)
147 Gatling Gears Aug 30, 2011 $9.99N/A (N/A)20,000 .. 50,0000%00:00 (00:00)
148 Weird Hero Nov 18, 2016 $0.51N/A (N/A)0 .. 20,0000%00:00 (00:00)
149 Star Ruler Sep 20, 2010 $3.99N/A (N/A)100,000 .. 200,0000%00:00 (00:00)
150 Codex of Victory Mar 16, 2017 $2.99N/A (N/A)20,000 .. 50,0000%00:00 (00:00)
151 A Game of Dwarves Oct 23, 2012 $2.49N/A (N/A/60%)100,000 .. 200,0000%00:00 (00:00)
152 Zombie Apocalypse: Escape The Undead City Jun 17, 2016 $0.99N/A (N/A)0 .. 20,0000%00:00 (00:00)
153 Sengoku Sep 15, 2011 $2.49N/A (N/A/70%)100,000 .. 200,0000%00:00 (00:00)
154 Pongo May 14, 2015 $0.99N/A (N/A)100,000 .. 200,0000%00:00 (00:00)
155 Solar Shifter EX Sep 11, 2015 $0.99N/A (N/A)0 .. 20,0000%00:00 (00:00)
156 Blacksea Odyssey Jun 1, 2016 $9.99N/A (N/A/74%)20,000 .. 50,0000%00:00 (00:00)
157 Super Furball May 13, 2014 $3.99N/A (N/A)0 .. 20,0000%00:00 (00:00)
158 Templar Battleforce Sep 21, 2015 $3.99N/A (N/A)50,000 .. 100,0000%00:00 (00:00)
159 Redemption: Saints And Sinners Nov 18, 2016 $0.99N/A (N/A)50,000 .. 100,0000%00:00 (00:00)
160 Cuban Missile Crisis May 6, 2005 $0.74N/A (N/A)0 .. 20,0000%00:00 (00:00)
161 Curse of the Crescent Isle DX Aug 21, 2015 $0.99N/A (N/A)0 .. 20,0000%00:00 (00:00)
162 Interloper May 21, 2015 FreeN/A (N/A/77%)20,000 .. 50,00010%03:21 (01:07)
163 TASTEE: Lethal Tactics May 10, 2016 $14.99N/A (N/A)20,000 .. 50,0000%00:00 (00:00)
164 Assassin’s Creed Chronicles: India Jan 12, 2016 $2.99N/A (N/A)50,000 .. 100,0000%00:00 (00:00)
165 Disposable Heroes Oct 1, 2015 $1.99N/A (N/A)20,000 .. 50,0000%00:00 (00:00)
166 Nightside Apr 2, 2015 $2.99N/A (N/A)0 .. 20,0000%00:00 (00:00)
167 Skyshine's BEDLAM Sep 16, 2015 $4.99N/A (N/A/67%)100,000 .. 200,0000%00:00 (00:00)
168 Once Bitten, Twice Dead! Jul 17, 2015 $4.99N/A (N/A)20,000 .. 50,0000%00:00 (00:00)
169 Adventure in the Tower of Flight Dec 23, 2015 $4.99N/A (N/A)0 .. 20,0000%00:00 (00:00)
170 The Living Dungeon Nov 2, 2015 $9.99N/A (N/A)0 .. 20,0000%00:00 (00:00)
171 Merchants of Kaidan Nov 10, 2014 $1.49N/A (N/A)100,000 .. 200,0004.55%03:54 (01:18)
172 Psichodelya Aug 8, 2014 N/AN/A (N/A)50,000 .. 100,0000%00:00 (00:00)
173 Evopollution Apr 23, 2014 $4.99N/A (N/A)0 .. 20,0000%00:00 (00:00)
174 Disney Pirates of the Caribbean: At Worlds End May 22, 2007 $5.99N/A (N/A)20,000 .. 50,0000%00:00 (00:00)
175 Brigade E5: New Jagged Union Oct 17, 2006 $0.79N/A (N/A/41%)0 .. 20,0000%00:00 (00:00)
176 7,62 High Calibre Aug 24, 2007 $0.99N/A (N/A)50,000 .. 100,0000%00:00 (00:00)
177 Viktor Jun 13, 2014 $0.79N/A (N/A)20,000 .. 50,0000%00:00 (00:00)
178 The Fall May 30, 2014 $1.99N/A (N/A/76%)200,000 .. 500,0000%00:00 (00:00)
179 Zombies on a Plane Mar 25, 2016 $0.49N/A (N/A)20,000 .. 50,0000%00:00 (00:00)
180 Royal Defense Nov 6, 2014 $4.99N/A (N/A)100,000 .. 200,00010%03:19 (01:06)
181 Overruled! Sep 15, 2015 $1.94N/A (N/A)20,000 .. 50,0000%00:00 (00:00)
182 Smugglers 5 Apr 11, 2014 $9.99N/A (N/A)20,000 .. 50,0000%00:00 (00:00)
183 Knightmare Tower Jun 16, 2014 $3.99N/A (N/A)0 .. 20,0000%00:00 (00:00)
184 NOBUNAGA'S AMBITION: Souzou (Traditional Chinese version) Aug 2014 $24.99N/A (N/A)20,000 .. 50,0000%00:00 (00:00)
185 Orbital Gear Aug 7, 2014 $0.99N/A (N/A/59%)200,000 .. 500,0005.88%01:16 (00:25)
186 Elliot Quest Nov 10, 2014 $9.99N/A (N/A)0 .. 20,0000%00:00 (00:00)
187 Rooks Keep Dec 5, 2014 $5.35N/A (N/A)0 .. 20,0000%00:00 (00:00)
188 Conquest of Elysium 3 Oct 24, 2012 $2.49N/A (N/A)50,000 .. 100,0000%00:00 (00:00)
189 BitMaster Oct 12, 2016 $0.5N/A (N/A)100,000 .. 200,0000%00:00 (00:00)
190 Scourge: Outbreak Apr 2, 2014 $5.99N/A (N/A)100,000 .. 200,0000%00:00 (00:00)
191 Western 1849 Reloaded Feb 10, 2017 $3.99N/A (N/A)0 .. 20,0000%00:00 (00:00)
192 MDK2 HD Jul 30, 2012 $7.49N/A (N/A/73%)0 .. 20,0000%00:00 (00:00)
193 Zombo Buster Rising Oct 2, 2016 $0.49N/A (N/A)0 .. 20,0000%00:00 (00:00)
194 Retrovirus Jan 31, 2013 $4.99N/A (N/A/70%)20,000 .. 50,0000%00:00 (00:00)
195 Defence to death May 11, 2017 $0.59N/A (N/A)20,000 .. 50,00011.11%04:01 (01:20)
196 Painkiller Hell & Damnation Oct 31, 2012 $3.99N/A (N/A/64%)200,000 .. 500,0000%00:00 (00:00)
197 Toadled Sep 22, 2016 $0.59N/A (N/A)50,000 .. 100,0000%00:00 (00:00)
198 Impire Feb 14, 2013 $4.99N/A (N/A/45%)100,000 .. 200,0000%00:00 (00:00)
199 Tank Destroyer Mar 9, 2017 $0.49N/A (N/A)50,000 .. 100,0000%00:00 (00:00)
200 Zeno Clash 2 Apr 30, 2013 $2.99N/A (N/A)200,000 .. 500,0003.45%00:49 (00:16)
201 Death's Hangover Jan 20, 2017 $0.49N/A (N/A)20,000 .. 50,0000%00:00 (00:00)
202 Men of War: Condemned Heroes Apr 12, 2012 $1.59N/A (N/A/57%)100,000 .. 200,0000%00:00 (00:00)
203 Pigmentone Jul 8, 2016 $1.99N/A (N/A)0 .. 20,0000%00:00 (00:00)
204 Jagged Alliance 2 - Wildfire Mar 8, 2004 $3.49N/A (N/A)500,000 .. 1,000,0000%00:00 (00:00)
205 Double Dragon IV Jan 30, 2017 $3.49N/A (N/A/50%)100,000 .. 200,0000%00:00 (00:00)
206 Jagged Alliance: Crossfire Aug 24, 2012 $3.74N/A (N/A/63%)100,000 .. 200,0000%00:00 (00:00)
207 Sorcerer King: Rivals Sep 22, 2016 $9.99N/A (N/A)50,000 .. 100,0000%00:00 (00:00)
208 Gemini Wars Nov 2, 2012 $5.24N/A (N/A/53%)20,000 .. 50,0000%00:00 (00:00)
209 Aegis Oct 6, 2016 $2.99N/A (N/A)20,000 .. 50,0000%00:00 (00:00)
210 Stellar Impact Apr 12, 2012 $9.99N/A (N/A/74%)50,000 .. 100,0000%00:00 (00:00)
211 Bulletstorm: Full Clip Edition Apr 7, 2017 $3.99N/A (N/A/76%)200,000 .. 500,0009.09%00:26 (00:17)
212 Eufloria HD Oct 14, 2014 $3.74N/A (N/A)100,000 .. 200,0000%00:00 (00:00)
213 Voodoo Vince: Remastered Apr 17, 2017 $14.99N/A (N/A/63%)20,000 .. 50,0000%00:00 (00:00)
214 Check vs Mate Aug 16, 2012 $7.99N/A (N/A/69%)20,000 .. 50,0000%00:00 (00:00)
215 The Superfluous May 19, 2017 $1.99N/A (N/A)0 .. 20,0000%00:00 (00:00)
216 Arma Tactics Oct 1, 2013 $1.79N/A (N/A/47%)200,000 .. 500,0000%00:00 (00:00)
217 Mysterium: A Psychic Clue Game Jan 12, 2017 $6.99N/A (N/A)50,000 .. 100,0000%00:00 (00:00)
218 Conflict Desert Storm Sep 13, 2002 $0.97N/A (N/A/56%)100,000 .. 200,0000%00:00 (00:00)
219 Battle Time Sep 29, 2016 $0.49N/A (N/A)50,000 .. 100,0000%00:00 (00:00)
220 Sang-Froid - Tales of Werewolves Apr 5, 2013 FreeN/A (N/A/79%)200,000 .. 500,0000%00:00 (00:00)
221 rooMaze Mar 3, 2017 $0.49N/A (N/A)50,000 .. 100,0000%00:00 (00:00)
222 Cross of the Dutchman Sep 10, 2015 $4.49N/A (N/A/59%)20,000 .. 50,0000%00:00 (00:00)
223 Tiki Man Jun 4, 2015 $1.94N/A (N/A)50,000 .. 100,0000%00:00 (00:00)
224 Zombie Party Jun 10, 2016 $9.99N/A (N/A)100,000 .. 200,0000%00:00 (00:00)
225 Biodrone Battle Jul 16, 2015 $1.99N/A (N/A)50,000 .. 100,0000%00:00 (00:00)
226 Dead But Alive! Southern England Oct 2, 2015 $14.99N/A (N/A)0 .. 20,0000%00:00 (00:00)
227 Tcheco in the Castle of Lucio Jun 22, 2015 $0.49N/A (N/A)50,000 .. 100,0000%00:00 (00:00)
228 Jim Power -The Lost Dimension Dec 10, 1993 $1.74N/A (N/A)0 .. 20,0000%00:00 (00:00)
229 Rack N Ruin Sep 1, 2015 $9.99N/A (N/A)0 .. 20,0000%00:00 (00:00)
230 Demons with Shotguns Apr 25, 2016 $0.99N/A (N/A)0 .. 20,0000%00:00 (00:00)
231 Valley Aug 24, 2016 $2.99N/A (N/A)200,000 .. 500,0000%00:00 (00:00)
232 Gnumz: Masters of Defense Dec 21, 2015 $0.49N/A (N/A)200,000 .. 500,0000%00:00 (00:00)
233 Incandescent Jun 30, 2015 $0.49N/A (N/A)20,000 .. 50,0000%00:00 (00:00)
234 Cast of the Seven Godsends - Redux Jul 20, 2015 $1.99N/A (N/A)20,000 .. 50,0000%00:00 (00:00)
235 Lost in Paradise Aug 20, 2015 $2.99N/A (N/A)20,000 .. 50,0000%00:00 (00:00)
236 Defend The Highlands Nov 6, 2015 $9.99N/A (N/A)200,000 .. 500,0000%00:00 (00:00)
237 Kidnapped Aug 4, 2015 $1.04N/A (N/A)100,000 .. 200,0009.09%00:50 (00:16)
238 Island Defense Jul 23, 2015 $1.99N/A (N/A)50,000 .. 100,0000%00:00 (00:00)
239 Battle Academy 2: Eastern Front Sep 12, 2014 $9.59N/A (N/A/78%)0 .. 20,0000%00:00 (00:00)
240 Spirits of Xanadu Mar 26, 2015 $1.24N/A (N/A)0 .. 20,0000%00:00 (00:00)
241 Will Fight for Food: Super Actual Sellout: Game of the Hour Apr 22, 2015 $1.24N/A (N/A)20,000 .. 50,0000%00:00 (00:00)
242 Warhammer 40,000: Armageddon Nov 26, 2014 $7.99N/A (N/A/68%)50,000 .. 100,0000%00:00 (00:00)
243 Nux Dec 26, 2006 $6.99N/A (N/A)100,000 .. 200,0004.55%01:14 (00:24)
244 Momodora III Jul 1, 2014 $1.99N/A (N/A)50,000 .. 100,0000%00:00 (00:00)
245 Othello Aug 5, 2016 N/AN/A (N/A)20,000 .. 50,0000%00:00 (00:00)
246 Kick-Ass 2 Aug 15, 2014 $3.99N/A (N/A)20,000 .. 50,0000%00:00 (00:00)
247 Gold Rush! Classic Dec 23, 1988 $1.01N/A (N/A)100,000 .. 200,0002.86%08:18 (02:46)
248 Aeon Command Jul 3, 2014 $0.74N/A (N/A)20,000 .. 50,0000%00:00 (00:00)
249 The Nightmare Cooperative Jul 16, 2014 $1.24N/A (N/A)20,000 .. 50,0000%00:00 (00:00)
250 Blue Estate The Game Apr 8, 2015 $12.99N/A (N/A/59%)50,000 .. 100,0000%00:00 (00:00)
251 The Way May 20, 2016 $1.49N/A (N/A/67%)100,000 .. 200,0000%00:00 (00:00)
252 World War 2: Time of Wrath Jun 15, 2009 $0.49N/A (N/A)20,000 .. 50,0000%00:00 (00:00)
253 The Stalin Subway Oct 5, 2006 $0.51N/A (N/A)100,000 .. 200,0000%00:00 (00:00)
254 Heavy Fire: Afghanistan Aug 15, 2014 $0.89N/A (N/A)50,000 .. 100,0000%00:00 (00:00)
255 Super Trench Attack! Jul 24, 2014 $0.49N/A (N/A)50,000 .. 100,0000%00:00 (00:00)
256 7 Grand Steps: What Ancients Begat Jun 7, 2013 $11.99N/A (N/A)20,000 .. 50,0000%00:00 (00:00)
257 ENSLAVED: Odyssey to the West Premium Edition Oct 24, 2013 $3.19N/A (N/A/70%)200,000 .. 500,0000%00:00 (00:00)
258 Bleed Jul 3, 2013 $0.99N/A (N/A)100,000 .. 200,0000%00:00 (00:00)
259 Disney Epic Mickey 2: The Power of Two Nov 18, 2012 $5.99N/A (N/A)20,000 .. 50,0000%00:00 (00:00)
260 Ittle Dew Jul 23, 2013 $4.99N/A (N/A/67%)100,000 .. 200,0000%00:00 (00:00)
261 Risk At some point N/AN/A (N/A)0 .. 20,0000%00:00 (00:00)
262 CastleStorm Jul 29, 2013 $1.99N/A (N/A/73%)100,000 .. 200,0000%00:00 (00:00)
263 Skulls of the Shogun Jul 29, 2013 $2.49N/A (N/A/72%)100,000 .. 200,0008.33%00:53 (00:17)
264 Guncraft Aug 9, 2013 $14.99N/A (N/A/73%)50,000 .. 100,0000%00:00 (00:00)
265 Anodyne Mar 22, 2013 $7.49N/A (N/A/75%)100,000 .. 200,0000%00:00 (00:00)
266 In Verbis Virtus Apr 3, 2015 $4.99N/A (N/A)100,000 .. 200,00010%01:23 (00:27)
267 Eador: Genesis Aug 7, 2009 $4.01N/A (N/A)50,000 .. 100,0000%00:00 (00:00)
268 Divinity: Dragon Commander Aug 6, 2013 $3.99N/A (N/A)200,000 .. 500,0000%00:00 (00:00)
269 Anomaly 2 May 15, 2013 $2.99N/A (N/A/77%)200,000 .. 500,0000%00:00 (00:00)
270 Sid Meier’s Ace Patrol Aug 27, 2013 $1.24N/A (N/A)200,000 .. 500,0003.03%00:54 (00:18)
271 Skyward Collapse May 23, 2013 $1.24N/A (N/A/64%)100,000 .. 200,0000%00:00 (00:00)
272 VelocityUltra Dec 12, 2013 $9.99N/A (N/A)20,000 .. 50,0000%00:00 (00:00)
273 Ace of Protectors Jun 27, 2016 $1.99N/A (N/A)20,000 .. 50,0000%00:00 (00:00)
274 Warhammer 40,000: Dawn of War – Winter Assault Jan 1, 2006 $3.24N/A (N/A)500,000 .. 1,000,0000%00:00 (00:00)
275 Rubber and Lead Sep 4, 2015 $4.99N/A (N/A)50,000 .. 100,0000%00:00 (00:00)
276 Majesty Gold HD Mar 23, 2001 $2.49N/A (N/A)100,000 .. 200,0000%00:00 (00:00)
277 Prospekt Feb 18, 2016 $2.99N/A (N/A/43%)50,000 .. 100,0000%00:00 (00:00)
278 Supreme Commander Feb 20, 2007 $2.59N/A (N/A/86%)1,000,000 .. 2,000,0000%00:00 (00:00)
279 Sim Junta Aug 18, 2015 $0.49N/A (N/A)0 .. 20,0000%00:00 (00:00)
280 Caster Mar 19, 2009 $1.99N/A (N/A)200,000 .. 500,0000%00:00 (00:00)
281 The Seven Years War (1756-1763) Oct 30, 2015 $19.99N/A (N/A)20,000 .. 50,0000%00:00 (00:00)
282 Heroes of Might & Magic V: Hammers of Fate Nov 14, 2006 $2.49N/A (N/A/66%)50,000 .. 100,0000%00:00 (00:00)
283 Toy Odyssey: The Lost and Found Sep 20, 2016 $14.99N/A (N/A/66%)20,000 .. 50,0000%00:00 (00:00)
284 Advent Rising Aug 9, 2005 $6.69N/A (N/A/70%)50,000 .. 100,0000%00:00 (00:00)
285 Infection: Humanity's Last Gasp May 26, 2016 $4.99N/A (N/A)0 .. 20,0000%00:00 (00:00)
286 Nuclear Dawn Sep 26, 2011 $1.79N/A (N/A/71%)200,000 .. 500,0004.17%03:31 (01:10)
287 NOBUNAGA'S AMBITION: Sphere of Influence Sep 1, 2015 $59.99N/A (N/A/70%)20,000 .. 50,0000%00:00 (00:00)
288 BloodRayne (Legacy) Sep 9, 2003 N/AN/A (N/A/65%)50,000 .. 100,0000%00:00 (00:00)
289 After The End: The Harvest Jun 2, 2017 $1.24N/A (N/A)50,000 .. 100,0000%00:00 (00:00)
290 Tom Clancy's EndWar Feb 25, 2009 $2.99N/A (N/A/68%)100,000 .. 200,0000%00:00 (00:00)
291 Miracle Fly Oct 26, 2015 $3.19N/A (N/A)20,000 .. 50,0000%00:00 (00:00)
292 Civilization IV: Warlords Jul 24, 2006 $4.99N/A (N/A/84%)1,000,000 .. 2,000,0000%00:00 (00:00)
293 Vampire of the Sands Jul 17, 2015 $4.99N/A (N/A)0 .. 20,0000%00:00 (00:00)
294 Earth Defense Force: Insect Armageddon Dec 14, 2011 $9.99N/A (N/A/69%)50,000 .. 100,0000%00:00 (00:00)
295 Space Food Truck Mar 25, 2016 $4.99N/A (N/A)0 .. 20,0000%00:00 (00:00)
296 Ghost Master Aug 23, 2003 $0.99N/A (N/A/81%)100,000 .. 200,0000%00:00 (00:00)
297 Vendetta - Curse of Raven's Cry Nov 20, 2015 $11.99N/A (N/A)200,000 .. 500,00025%06:39 (04:26)
298 King Arthur - The Role-playing Wargame Nov 24, 2009 $2.49N/A (N/A)200,000 .. 500,0000%00:00 (00:00)
299 Arcane Sorcery Sep 15, 2015 FreeN/A (N/A)20,000 .. 50,0000%00:00 (00:00)
300 Making History: The Calm & the Storm Mar 13, 2007 $0.99N/A (N/A/70%)50,000 .. 100,0000%00:00 (00:00)
301 FIVE: Guardians of David Nov 24, 2015 $9.99N/A (N/A/66%)20,000 .. 50,0000%00:00 (00:00)
302 Elven Legacy Apr 7, 2009 $0.99N/A (N/A/71%)50,000 .. 100,0000%00:00 (00:00)
303 Little Big Adventure 2 Oct 20, 2015 $1.19N/A (N/A)50,000 .. 100,0000%00:00 (00:00)
304 Lost Planet: Extreme Condition Jun 26, 2007 $2.99N/A (N/A/66%)200,000 .. 500,0000%00:00 (00:00)
305 Tic-Toc-Tower Sep 28, 2015 $0.5N/A (N/A)0 .. 20,0000%00:00 (00:00)
306 Supreme Ruler 2020 Gold Jun 17, 2008 $1.99N/A (N/A/65%)50,000 .. 100,0000%00:00 (00:00)
307 TRON 2.0 Aug 22, 2003 $2.49N/A (N/A/84%)200,000 .. 500,0000%00:00 (00:00)
308 There Came an Echo Feb 24, 2015 $5.09N/A (N/A/58%)20,000 .. 50,0000%00:00 (00:00)
309 Frozen Synapse Prime Nov 14, 2014 $2.49N/A (N/A/83%)100,000 .. 200,0000%00:00 (00:00)
310 Deadlings: Rotten Edition Nov 11, 2014 $3.99N/A (N/A)50,000 .. 100,0000%00:00 (00:00)
311 BossConstructor Oct 24, 2016 $7.49N/A (N/A)0 .. 20,0000%00:00 (00:00)
312 Magnifico Dec 2, 2014 $0.49N/A (N/A)0 .. 20,00020%00:41 (00:13)
313 Ys VI: The Ark of Napishtim Apr 28, 2015 $4.99N/A (N/A/76%)50,000 .. 100,0000%00:00 (00:00)
314 Toren May 11, 2015 $2.49N/A (N/A/57%)100,000 .. 200,0000%00:00 (00:00)
315 A.R.E.S. Extinction Agenda EX Oct 3, 2014 $9.99N/A (N/A)0 .. 20,0000%00:00 (00:00)
316 Wickland Nov 14, 2014 $0.99N/A (N/A)50,000 .. 100,0000%00:00 (00:00)
317 Spud's Quest Jul 31, 2014 $7.99N/A (N/A)0 .. 20,0000%00:00 (00:00)
318 War, the Game Jan 12, 2015 $6.99N/A (N/A/65%)20,000 .. 50,0000%00:00 (00:00)
319 Wave of Darkness Nov 5, 2015 $14.99N/A (N/A)0 .. 20,0000%00:00 (00:00)
320 Run or Die Dec 11, 2014 $0.49N/A (N/A)20,000 .. 50,0000%00:00 (00:00)
321 Platypus II Mar 17, 2007 $3.99N/A (N/A)200,000 .. 500,0003.45%00:48 (00:16)
322 Ironcast Mar 26, 2015 $2.99N/A (N/A/75%)50,000 .. 100,0000%00:00 (00:00)
323 Gold Rush! Anniversary Nov 7, 2014 $2.03N/A (N/A)0 .. 20,0000%00:00 (00:00)
324 YAIBA: NINJA GAIDEN Z Mar 21, 2014 $29.99N/A (N/A/49%)20,000 .. 50,0000%00:00 (00:00)
325 Unearthed: Trail of Ibn Battuta - Episode 1 - Gold Edition Jan 3, 2014 $4.99N/A (N/A)20,000 .. 50,0000%00:00 (00:00)
326 Dusty Revenge:Co-Op Edition Feb 17, 2014 $4.94N/A (N/A)50,000 .. 100,0000%00:00 (00:00)
327 SPACECOM Sep 17, 2014 $1.99N/A (N/A/68%)50,000 .. 100,0000%00:00 (00:00)
328 McDROID Sep 5, 2014 $24.99N/A (N/A)0 .. 20,0000%00:00 (00:00)
329 Zafehouse: Diaries Sep 6, 2013 $0.99N/A (N/A)50,000 .. 100,0000%00:00 (00:00)
330 Hot Tin Roof: The Cat That Wore A Fedora Feb 20, 2015 $7.49N/A (N/A/66%)50,000 .. 100,0000%00:00 (00:00)
331 Livelock Aug 30, 2016 $4.99N/A (N/A/73%)100,000 .. 200,0000%00:00 (00:00)
332 PixelJunk Shooter Nov 11, 2013 $0.89N/A (N/A/73%)100,000 .. 200,0000%00:00 (00:00)
333 Chainsaw Warrior Oct 7, 2013 $0.99N/A (N/A)20,000 .. 50,00012.5%05:19 (01:46)
334 Tank Operations: European Campaign Nov 22, 2013 N/AN/A (N/A)20,000 .. 50,0000%00:00 (00:00)
335 Stick it to The Man! Dec 13, 2013 $1.59N/A (N/A/83%)20,000 .. 50,0000%00:00 (00:00)
336 Bedlam Oct 13, 2015 N/AN/A (N/A/54%)100,000 .. 200,0000%00:00 (00:00)
337 Master Reboot Oct 29, 2013 $12.99N/A (N/A/59%)50,000 .. 100,0000%00:00 (00:00)
338 Last Knight: Rogue Rider Edition Oct 3, 2014 $7.99N/A (N/A)20,000 .. 50,0000%00:00 (00:00)
339 Anomaly Warzone Earth Mobile Campaign Nov 6, 2013 $0.99N/A (N/A)100,000 .. 200,0000%00:00 (00:00)
340 Pixel Boy and the Ever Expanding Dungeon May 30, 2014 N/AN/A (N/A)20,000 .. 50,0000%00:00 (00:00)

Tags over time:

Access restricted.

This feature is only available to users with special access rights. Sorry.

If you want to proceed, you need to register or log in first and then back Steam Spy on Patreon. Look for Indie or Pro pledge.

Don't forget to use the same email as on Steam Spy!

Owners of this game also own:

Access restricted.

This feature is only available to users with special access rights. Sorry.

If you want to proceed, you need to register or log in first and then back Steam Spy on Patreon. Look for Indie or Pro pledge.

Don't forget to use the same email as on Steam Spy!

Playtime distribution:

Access restricted.

This feature is only available to users with special access rights. Sorry.

If you want to proceed, you need to register or log in first and then back Steam Spy on Patreon. Look for Indie or Pro pledge.

Don't forget to use the same email as on Steam Spy!

Playtime (2 weeks):

Access restricted.

This feature is only available to users with special access rights. Sorry.

If you want to proceed, you need to register or log in first and then back Steam Spy on Patreon. Look for Indie or Pro pledge.

Don't forget to use the same email as on Steam Spy!

User reviews:

Login required.

Please register or log in to see this information.